createdAt,value
2019-05-13T00:01:07.047Z,8.16
2019-05-13T00:02:49.202Z,8.18
2019-05-13T00:04:30.836Z,8.19
2019-05-13T00:06:13.369Z,8.19
2019-05-13T00:07:58.083Z,8.83
2019-05-13T00:09:39.978Z,8.27
2019-05-13T00:11:23.954Z,8.32
2019-05-13T00:13:04.309Z,8.35
2019-05-13T00:14:44.145Z,8.35
2019-05-13T00:16:23.602Z,8.36
2019-05-13T00:18:03.817Z,8.3
2019-05-13T00:19:44.215Z,8.26
2019-05-13T00:21:23.871Z,8.22
2019-05-13T00:23:03.826Z,8.21
2019-05-13T00:24:44.184Z,8.18
2019-05-13T00:26:24.403Z,8.14
2019-05-13T00:28:04.323Z,8.06
2019-05-13T00:29:44.362Z,7.96
2019-05-13T00:31:24.091Z,7.9
2019-05-13T00:33:04.099Z,7.88
2019-05-13T00:34:44.490Z,7.76
2019-05-13T00:36:24.342Z,7.73
2019-05-13T00:38:04.159Z,7.64
2019-05-13T00:39:44.202Z,7.57
2019-05-13T00:41:24.451Z,7.54
2019-05-13T00:43:03.734Z,8.13
2019-05-13T00:44:44.289Z,7.5
2019-05-13T00:46:23.944Z,7.52
2019-05-13T00:48:14.258Z,8.12
2019-05-13T00:49:54.150Z,7.5
2019-05-13T00:51:33.854Z,7.52
2019-05-13T00:53:13.510Z,7.52
2019-05-13T00:54:53.455Z,7.5
2019-05-13T00:56:34.430Z,7.49
2019-05-13T00:58:14.307Z,7.44
2019-05-13T00:59:54.042Z,7.4
2019-05-13T01:01:33.676Z,7.35
2019-05-13T01:03:14.015Z,7.3
2019-05-13T01:04:53.852Z,7.24
2019-05-13T01:06:34.064Z,7.14
2019-05-13T01:08:14.485Z,7.04
2019-05-13T01:09:54.211Z,6.96
2019-05-13T01:11:34.287Z,6.86
2019-05-13T01:13:13.961Z,6.78
2019-05-13T01:14:53.519Z,6.78
2019-05-13T01:16:34.038Z,6.74
2019-05-13T01:18:14.341Z,6.68
2019-05-13T01:19:53.929Z,6.64
2019-05-13T01:21:34.460Z,6.56
2019-05-13T01:23:14.330Z,6.51
2019-05-13T01:24:54.218Z,6.49
2019-05-13T01:26:33.886Z,6.48
2019-05-13T01:28:13.591Z,6.46
2019-05-13T01:29:53.528Z,6.45
2019-05-13T01:31:34.334Z,6.41
2019-05-13T01:33:14.371Z,6.38
2019-05-13T01:34:54.102Z,6.36
2019-05-13T01:36:34.017Z,6.28
2019-05-13T01:38:13.704Z,6.27
2019-05-13T01:39:54.017Z,6.27
2019-05-13T01:41:33.706Z,6.24
2019-05-13T01:43:14.321Z,6.21
2019-05-13T01:44:54.058Z,6.17
2019-05-13T01:46:34.614Z,6.14
2019-05-13T01:48:14.381Z,6.1
2019-05-13T01:49:54.224Z,6.06
2019-05-13T01:51:33.851Z,6.01
2019-05-13T01:53:33.567Z,6.64
2019-05-13T01:55:14.477Z,5.97
2019-05-13T01:56:54.230Z,5.91
2019-05-13T01:58:34.052Z,5.91
2019-05-13T02:00:14.133Z,5.86
2019-05-13T02:01:54.131Z,5.83
2019-05-13T02:03:33.857Z,5.81
2019-05-13T02:05:13.959Z,5.76
2019-05-13T02:06:54.306Z,5.75
2019-05-13T02:08:33.929Z,5.75
2019-05-13T02:10:14.287Z,6.34
2019-05-13T02:11:54.018Z,5.68
2019-05-13T02:13:34.278Z,6.26
2019-05-13T02:15:14.602Z,5.67
2019-05-13T02:16:54.248Z,5.66
2019-05-13T02:18:34.278Z,5.65
2019-05-13T02:20:14.705Z,5.62
2019-05-13T02:21:54.269Z,6.2
2019-05-13T02:23:34.131Z,5.55
2019-05-13T02:25:14.018Z,5.54
2019-05-13T02:26:54.282Z,5.55
2019-05-13T02:28:33.967Z,5.53
2019-05-13T02:30:15.923Z,5.49
2019-05-13T02:31:56.376Z,5.48
2019-05-13T02:33:42.151Z,5.46
2019-05-13T02:35:23.101Z,5.43
2019-05-13T02:37:03.382Z,5.43
2019-05-13T02:38:42.973Z,5.42
2019-05-13T02:40:22.705Z,5.38
2019-05-13T02:42:03.392Z,5.36
2019-05-13T02:43:45.673Z,5.98
2019-05-13T02:45:32.987Z,5.98
2019-05-13T02:47:12.800Z,5.36
2019-05-13T02:48:52.859Z,5.31
2019-05-13T02:50:33.699Z,5.33
2019-05-13T02:52:13.588Z,5.28
2019-05-13T02:53:53.173Z,5.27
2019-05-13T02:55:32.945Z,5.25
2019-05-13T02:57:14.152Z,5.83
2019-05-13T02:58:53.667Z,5.21
2019-05-13T03:00:33.097Z,5.21
2019-05-13T03:02:12.698Z,5.19
2019-05-13T03:03:52.919Z,5.17
2019-05-13T03:05:32.540Z,5.12
2019-05-13T03:07:12.062Z,5.11
2019-05-13T03:08:54.274Z,5.09
2019-05-13T03:10:37.658Z,5.06
2019-05-13T03:12:22.774Z,5.06
2019-05-13T03:14:03.566Z,5.08
2019-05-13T03:15:43.263Z,5.07
2019-05-13T03:17:22.692Z,5.07
2019-05-13T03:19:02.915Z,5.04
2019-05-13T03:20:43.156Z,5.03
2019-05-13T03:22:22.814Z,5.03
2019-05-13T03:24:03.360Z,5.03
2019-05-13T03:25:43.165Z,5.02
2019-05-13T03:27:24.984Z,5.04
2019-05-13T03:29:17.557Z,5.65
2019-05-13T03:31:05.158Z,5.01
2019-05-13T03:33:01.653Z,5.64
2019-05-13T03:35:09.292Z,4.67
2019-05-13T03:37:06.233Z,4.97
2019-05-13T03:39:01.003Z,5.56
2019-05-13T03:40:58.917Z,4.61
2019-05-13T03:42:42.444Z,4.86
2019-05-13T03:44:23.504Z,4.88
2019-05-13T03:46:07.167Z,4.9
2019-05-13T03:47:47.810Z,5.49
2019-05-13T03:49:32.613Z,4.83
2019-05-13T03:51:13.481Z,4.83
2019-05-13T03:52:56.849Z,4.79
2019-05-13T03:54:39.505Z,4.8
2019-05-13T03:56:23.470Z,4.81
2019-05-13T03:58:03.393Z,4.84
2019-05-13T03:59:43.724Z,4.81
2019-05-13T04:01:23.335Z,4.82
2019-05-13T04:03:03.418Z,4.8
2019-05-13T04:04:42.996Z,4.8
2019-05-13T04:06:23.465Z,4.79
2019-05-13T04:08:03.550Z,4.79
2019-05-13T04:09:43.150Z,4.8
2019-05-13T04:11:22.861Z,4.82
2019-05-13T04:13:03.710Z,4.84
2019-05-13T04:14:47.161Z,4.84
2019-05-13T04:16:31.952Z,4.83
2019-05-13T04:18:12.611Z,4.82
2019-05-13T04:19:53.029Z,4.83
2019-05-13T04:21:33.720Z,4.84
2019-05-13T04:23:12.929Z,5.49
2019-05-13T04:24:53.090Z,4.84
2019-05-13T04:26:32.811Z,4.86
2019-05-13T04:28:13.278Z,4.9
2019-05-13T04:29:53.078Z,4.91
2019-05-13T04:31:33.394Z,4.98
2019-05-13T04:33:14.037Z,5.05
2019-05-13T04:34:55.625Z,5.74
2019-05-13T04:36:37.928Z,5.19
2019-05-13T04:38:22.599Z,5.26
2019-05-13T04:40:03.647Z,5.36
2019-05-13T04:41:43.221Z,5.46
2019-05-13T04:43:23.439Z,5.57
2019-05-13T04:45:19.047Z,6.3
2019-05-13T04:47:03.491Z,5.81
2019-05-13T04:48:52.622Z,6.52
2019-05-13T04:50:33.013Z,6.05
2019-05-13T04:52:13.472Z,6.16
2019-05-13T04:53:57.065Z,6.28
2019-05-13T04:55:42.379Z,6.39
2019-05-13T04:57:22.749Z,6.46
2019-05-13T04:59:03.081Z,6.55
2019-05-13T05:00:42.963Z,6.69
2019-05-13T05:02:55.393Z,6.55
2019-05-13T05:04:38.542Z,6.97
2019-05-13T05:06:22.637Z,7.05
2019-05-13T05:08:12.094Z,7.17
2019-05-13T05:10:23.164Z,7.27
2019-05-13T05:12:22.767Z,7.96
2019-05-13T05:14:02.780Z,7.37
2019-05-13T05:15:42.368Z,7.39
2019-05-13T05:17:22.469Z,7.44
2019-05-13T05:19:02.343Z,7.47
2019-05-13T05:20:42.059Z,7.53
2019-05-13T05:22:26.626Z,7.61
2019-05-13T05:24:07.874Z,7.67
2019-05-13T05:25:51.959Z,7.75
2019-05-13T05:27:31.746Z,7.77
2019-05-13T05:29:11.380Z,7.79
2019-05-13T05:30:51.809Z,7.83
2019-05-13T05:32:39.387Z,8.46
2019-05-13T05:34:21.878Z,7.92
2019-05-13T05:36:01.782Z,7.9
2019-05-13T05:37:41.692Z,7.9
2019-05-13T05:39:22.601Z,7.92
2019-05-13T05:41:02.300Z,8.01
2019-05-13T05:42:41.712Z,8.06
2019-05-13T05:44:21.462Z,8.09
2019-05-13T05:46:01.716Z,8.18
2019-05-13T05:47:41.859Z,8.19
2019-05-13T05:49:21.488Z,8.21
2019-05-13T05:51:02.084Z,8.22
2019-05-13T05:52:42.086Z,8.22
2019-05-13T05:54:21.909Z,8.14
2019-05-13T05:56:02.296Z,8.11
2019-05-13T05:57:42.048Z,8.13
2019-05-13T05:59:21.930Z,8.16
2019-05-13T06:01:02.558Z,8.17
2019-05-13T06:02:42.581Z,8.19
2019-05-13T06:04:22.332Z,8.27
2019-05-13T06:06:01.867Z,8.34
2019-05-13T06:07:44.479Z,8.96
2019-05-13T06:09:26.296Z,8.33
2019-05-13T06:11:08.476Z,8.32
2019-05-13T06:12:49.672Z,8.34
2019-05-13T06:14:32.582Z,8.41
2019-05-13T06:16:12.400Z,8.41
2019-05-13T06:17:54.230Z,9.05
2019-05-13T06:19:33.957Z,8.53
2019-05-13T06:21:13.605Z,8.61
2019-05-13T06:22:53.348Z,8.76
2019-05-13T06:24:32.872Z,8.86
2019-05-13T06:26:12.722Z,8.9
2019-05-13T06:27:52.532Z,8.91
2019-05-13T06:29:32.188Z,8.9
2019-05-13T06:31:12.439Z,8.93
2019-05-13T06:32:52.663Z,8.97
2019-05-13T06:34:48.532Z,9.66
2019-05-13T06:36:31.604Z,9.3
2019-05-13T06:38:11.899Z,9.27
2019-05-13T06:39:51.838Z,9.31
2019-05-13T06:41:32.292Z,9.38
2019-05-13T06:43:12.408Z,9.47
2019-05-13T06:44:52.149Z,9.55
2019-05-13T06:46:32.360Z,9.51
2019-05-13T06:48:12.138Z,9.51
2019-05-13T06:49:51.792Z,9.6
2019-05-13T06:51:31.549Z,9.68
2019-05-13T06:53:12.614Z,9.79
2019-05-13T06:54:52.738Z,9.84
2019-05-13T06:56:32.418Z,9.84
2019-05-13T06:58:12.054Z,9.83
2019-05-13T06:59:52.512Z,9.91
2019-05-13T07:01:32.431Z,9.98
2019-05-13T07:03:12.880Z,10.08
2019-05-13T07:04:52.651Z,10.07
2019-05-13T07:06:32.591Z,10.11
2019-05-13T07:08:12.513Z,10.21
2019-05-13T07:09:52.565Z,10.22
2019-05-13T07:11:32.094Z,10.3
2019-05-13T07:13:18.661Z,11
2019-05-13T07:15:02.088Z,10.35
2019-05-13T07:16:42.287Z,10.33
2019-05-13T07:18:25.069Z,10.89
2019-05-13T07:20:07.096Z,10.29
2019-05-13T07:21:52.040Z,10.33
2019-05-13T07:23:32.043Z,10.34
2019-05-13T07:25:11.580Z,10.36
2019-05-13T07:26:52.289Z,11.07
2019-05-13T07:28:32.368Z,10.55
2019-05-13T07:30:18.416Z,11.3
2019-05-13T07:31:58.277Z,10.75
2019-05-13T07:33:42.349Z,10.83
2019-05-13T07:35:23.379Z,10.94
2019-05-13T07:37:12.850Z,11
2019-05-13T07:38:52.311Z,11.11
2019-05-13T07:40:32.211Z,11.1
2019-05-13T07:42:12.395Z,11
2019-05-13T07:43:52.096Z,11.09
2019-05-13T07:45:31.710Z,11.2
2019-05-13T07:47:11.730Z,11.3
2019-05-13T07:48:53.777Z,11.45
2019-05-13T07:50:52.639Z,12.21
2019-05-13T07:52:38.770Z,12.29
2019-05-13T07:54:21.951Z,11.75
2019-05-13T07:56:02.034Z,10.59
2019-05-13T07:57:45.694Z,12.26
2019-05-13T07:59:27.894Z,11.87
2019-05-13T08:01:17.377Z,10.85
2019-05-13T08:02:57.945Z,11.97
2019-05-13T08:04:41.879Z,10.66
2019-05-13T08:06:27.717Z,10.53
2019-05-13T08:08:10.954Z,10.49
2019-05-13T08:09:51.843Z,10.54
2019-05-13T08:11:55.331Z,10.58
2019-05-13T08:13:57.047Z,10.54
2019-05-13T08:15:38.360Z,10.49
2019-05-13T08:17:22.250Z,10.5
2019-05-13T08:19:02.079Z,10.64
2019-05-13T08:20:42.083Z,10.86
2019-05-13T08:22:22.157Z,10.99
2019-05-13T08:24:02.636Z,11.14
2019-05-13T08:25:42.649Z,11.29
2019-05-13T08:27:30.179Z,11.45
2019-05-13T08:29:13.233Z,11.48
2019-05-13T08:30:52.735Z,11.25
2019-05-13T08:32:32.244Z,11.25
2019-05-13T08:34:11.998Z,11.3
2019-05-13T08:35:53.701Z,11.39
2019-05-13T08:37:38.125Z,11.55
2019-05-13T08:39:21.584Z,11.46
2019-05-13T08:41:26.715Z,11.28
2019-05-13T08:43:08.704Z,11.24
2019-05-13T08:44:52.215Z,11.28
2019-05-13T08:46:32.328Z,11.31
2019-05-13T08:48:12.866Z,11.42
2019-05-13T08:49:52.448Z,11.59
2019-05-13T08:51:38.690Z,11.61
2019-05-13T08:53:21.206Z,11.57
2019-05-13T08:55:01.629Z,11.75
2019-05-13T08:56:41.722Z,12.06
2019-05-13T08:58:21.745Z,12.16
2019-05-13T09:00:04.608Z,12.2
2019-05-13T09:01:48.391Z,12.42
2019-05-13T09:03:32.498Z,12.81
2019-05-13T09:05:12.400Z,13.38
2019-05-13T09:06:52.521Z,13.92
2019-05-13T09:08:32.332Z,14.24
2019-05-13T09:10:12.351Z,14.26
2019-05-13T09:11:51.999Z,14.35
2019-05-13T09:13:32.946Z,14.5
2019-05-13T09:15:12.794Z,14.8
2019-05-13T09:16:52.503Z,15.1
2019-05-13T09:18:32.545Z,15.36
2019-05-13T09:20:12.038Z,15.71
2019-05-13T09:21:52.552Z,15.96
2019-05-13T09:23:32.264Z,16.34
2019-05-13T09:25:12.465Z,16.61
2019-05-13T09:26:52.765Z,16.6
2019-05-13T09:28:32.696Z,16.81
2019-05-13T09:30:12.249Z,16.9
2019-05-13T09:31:52.193Z,16.93
2019-05-13T09:33:32.684Z,16.74
2019-05-13T09:35:12.417Z,16.82
2019-05-13T09:36:52.183Z,17.03
2019-05-13T09:38:32.533Z,17.26
2019-05-13T09:40:11.722Z,17.51
2019-05-13T09:41:52.006Z,17.67
2019-05-13T09:43:31.819Z,17.8
2019-05-13T09:45:12.242Z,17.61
2019-05-13T09:46:51.963Z,17.59
2019-05-13T09:48:32.036Z,17.73
2019-05-13T09:50:27.374Z,18.05
2019-05-13T09:52:22.541Z,18.21
2019-05-13T09:54:02.294Z,18.52
2019-05-13T09:55:41.846Z,18.49
2019-05-13T09:57:22.081Z,18.5
2019-05-13T09:59:01.842Z,18.47
2019-05-13T10:00:42.166Z,18.56
2019-05-13T10:02:22.000Z,18.68
2019-05-13T10:04:02.905Z,18.61
2019-05-13T10:05:42.792Z,18.77
2019-05-13T10:07:22.990Z,19.08
2019-05-13T10:09:12.157Z,19.44
2019-05-13T10:10:52.860Z,19.37
2019-05-13T10:12:32.451Z,19.38
2019-05-13T10:14:11.950Z,19.3
2019-05-13T10:15:51.447Z,19.46
2019-05-13T10:17:31.742Z,19.62
2019-05-13T10:19:12.545Z,19.67
2019-05-13T10:20:58.425Z,19.68
2019-05-13T10:22:38.466Z,19.52
2019-05-13T10:24:21.675Z,19.61
2019-05-13T10:26:03.012Z,19.37
2019-05-13T10:27:43.052Z,18.82
2019-05-13T10:29:22.395Z,18.66
2019-05-13T10:31:02.509Z,18.69
2019-05-13T10:32:42.666Z,18.5
2019-05-13T10:34:22.685Z,18.73
2019-05-13T10:36:03.826Z,19.23
2019-05-13T10:37:45.211Z,19.47
2019-05-13T10:39:28.079Z,19.71
2019-05-13T10:41:07.598Z,20.05
2019-05-13T10:42:52.350Z,20.37
2019-05-13T10:44:31.965Z,20.14
2019-05-13T10:46:12.633Z,20.4
2019-05-13T10:47:52.538Z,20.79
2019-05-13T10:49:32.977Z,20.68
2019-05-13T10:51:13.038Z,20.37
2019-05-13T10:53:02.544Z,20.16
2019-05-13T10:54:49.244Z,20.51
2019-05-13T10:56:32.687Z,20.7
2019-05-13T10:58:12.520Z,20.92
2019-05-13T10:59:52.866Z,21.16
2019-05-13T11:01:42.597Z,21.39
2019-05-13T11:03:23.072Z,21.64
2019-05-13T11:05:03.289Z,21.88
2019-05-13T11:06:43.208Z,21.93
2019-05-13T11:08:22.816Z,21.87
2019-05-13T11:10:02.815Z,22.18
2019-05-13T11:11:42.871Z,21.99
2019-05-13T11:13:23.137Z,21.46
2019-05-13T11:15:40.448Z,21.25
2019-05-13T11:17:33.184Z,21.13
2019-05-13T11:19:12.770Z,21.22
2019-05-13T11:20:53.018Z,21.39
2019-05-13T11:22:32.760Z,21.74
2019-05-13T11:24:12.770Z,22.05
2019-05-13T11:25:52.591Z,21.97
2019-05-13T11:27:32.420Z,21.81
2019-05-13T11:29:12.331Z,21.67
2019-05-13T11:30:52.235Z,21.94
2019-05-13T11:32:42.331Z,22.37
2019-05-13T11:34:22.372Z,22.04
2019-05-13T11:36:03.202Z,22.13
2019-05-13T11:37:51.537Z,22.24
2019-05-13T11:39:32.479Z,22.64
2019-05-13T11:41:12.198Z,22.8
2019-05-13T11:42:52.707Z,22.98
2019-05-13T11:44:32.529Z,23.18
2019-05-13T11:46:12.438Z,23.16
2019-05-13T11:47:52.244Z,23.05
2019-05-13T11:49:31.928Z,23.11
2019-05-13T11:51:13.002Z,23.13
2019-05-13T11:52:52.770Z,23.38
2019-05-13T11:54:32.401Z,23.3
2019-05-13T11:56:12.187Z,23.62
2019-05-13T11:57:53.006Z,23.91
2019-05-13T12:01:33.344Z,24.36
2019-05-13T12:03:13.234Z,24.73
2019-05-13T12:04:53.413Z,24.62
2019-05-13T12:06:44.324Z,23.98
2019-05-13T12:08:33.741Z,23.53
2019-05-13T12:10:13.755Z,23.25
2019-05-13T12:11:53.347Z,23.05
2019-05-13T12:13:33.073Z,22.65
2019-05-13T12:15:26.769Z,22.38
2019-05-13T12:17:15.475Z,22.41
2019-05-13T12:18:57.400Z,22.79
2019-05-13T12:20:41.921Z,23.05
2019-05-13T12:22:22.882Z,23.21
2019-05-13T12:24:09.404Z,23.55
2019-05-13T12:25:52.512Z,23.88
2019-05-13T12:27:32.702Z,24.19
2019-05-13T12:29:18.462Z,24.4
2019-05-13T12:30:57.669Z,24.38
2019-05-13T12:32:43.659Z,24.26
2019-05-13T12:34:23.387Z,24.06
2019-05-13T12:36:02.850Z,23.86
2019-05-13T12:37:42.469Z,23.73
2019-05-13T12:39:23.729Z,23.98
2019-05-13T12:41:06.739Z,24.35
2019-05-13T12:42:49.426Z,24.36
2019-05-13T12:44:32.074Z,23.82
2019-05-13T12:46:50.300Z,23.88
2019-05-13T12:48:32.875Z,23.64
2019-05-13T12:50:13.523Z,23.67
2019-05-13T12:52:00.287Z,23.8
2019-05-13T12:53:43.404Z,23.8
2019-05-13T12:55:22.479Z,24.12
2019-05-13T12:57:03.540Z,24.53
2019-05-13T12:58:52.694Z,24.56
2019-05-13T13:00:35.141Z,24.61
2019-05-13T13:02:22.534Z,25.07
2019-05-13T13:04:02.188Z,24.84
2019-05-13T13:05:43.099Z,24.6
2019-05-13T13:07:22.823Z,24.63
2019-05-13T13:09:02.915Z,24.63
2019-05-13T13:10:42.517Z,24.49
2019-05-13T13:12:29.579Z,24.62
2019-05-13T13:14:17.790Z,24.95
2019-05-13T13:15:57.740Z,24.9
2019-05-13T13:17:41.530Z,24.91
2019-05-13T13:19:22.205Z,24.85
2019-05-13T13:21:06.824Z,24.73
2019-05-13T13:22:52.239Z,24.75
2019-05-13T13:24:31.965Z,24.53
2019-05-13T13:26:15.599Z,24.38
2019-05-13T13:28:09.713Z,24.51
2019-05-13T13:30:02.677Z,24.71
2019-05-13T13:31:46.693Z,24.86
2019-05-13T13:33:34.121Z,25.14
2019-05-13T13:35:14.952Z,25.37
2019-05-13T13:36:56.509Z,25.45
2019-05-13T13:38:43.670Z,25.71
2019-05-13T13:40:29.006Z,25.87
2019-05-13T13:44:23.339Z,26.3
2019-05-13T13:46:24.767Z,26.11
2019-05-13T13:48:27.735Z,26.34
2019-05-13T13:50:11.730Z,26.26
2019-05-13T13:51:51.649Z,26.47
2019-05-13T13:53:33.208Z,26.57
2019-05-13T13:55:15.688Z,26.43
2019-05-13T13:57:02.517Z,25.95
2019-05-13T13:58:43.674Z,25.44
2019-05-13T14:00:37.978Z,25.12
2019-05-13T14:04:29.867Z,25.12
2019-05-13T14:06:12.309Z,25.31
2019-05-13T14:09:14.522Z,25.84
2019-05-13T14:10:57.223Z,25.89
2019-05-13T14:12:38.451Z,26.24
2019-05-13T14:14:20.825Z,26.34
2019-05-13T14:16:01.818Z,26.57
2019-05-13T14:18:07.429Z,26.21
2019-05-13T14:19:48.558Z,25.98
2019-05-13T14:21:32.376Z,25.94
2019-05-13T14:23:12.690Z,25.68
2019-05-13T14:24:52.215Z,25.83
2019-05-13T14:26:32.985Z,26.15
2019-05-13T14:28:16.966Z,26.17
2019-05-13T14:30:01.485Z,25.96
2019-05-13T14:31:41.786Z,25.31
2019-05-13T14:33:21.217Z,25.45
2019-05-13T14:35:02.428Z,25.53
2019-05-13T14:36:48.623Z,25.37
2019-05-13T14:38:32.508Z,25.51
2019-05-13T14:40:12.440Z,25.61
2019-05-13T14:41:52.100Z,25.39
2019-05-13T14:43:32.040Z,25.29
2019-05-13T14:45:12.123Z,25.43
2019-05-13T14:46:56.076Z,25.5
2019-05-13T14:48:38.010Z,25.57
2019-05-13T14:50:21.344Z,25.36
2019-05-13T14:52:01.372Z,25.14
2019-05-13T14:53:41.594Z,24.83
2019-05-13T14:55:21.488Z,24.76
2019-05-13T14:57:02.323Z,24.5
2019-05-13T14:58:46.524Z,24.23
2019-05-13T15:00:28.473Z,23.97
2019-05-13T15:02:11.894Z,24.06
2019-05-13T15:03:52.109Z,24.25
2019-05-13T15:05:31.978Z,24.28
2019-05-13T15:07:12.242Z,23.99
2019-05-13T15:08:52.749Z,23.97
2019-05-13T15:10:31.792Z,24.27
2019-05-13T15:12:11.407Z,24.42
2019-05-13T15:13:51.733Z,24.59
2019-05-13T15:15:31.786Z,24.51
2019-05-13T15:17:12.702Z,23.88
2019-05-13T15:18:52.869Z,23.67
2019-05-13T15:20:33.176Z,23.92
2019-05-13T15:22:15.847Z,23.86
2019-05-13T15:23:57.569Z,23.79
2019-05-13T15:25:38.121Z,23.52
2019-05-13T15:27:21.991Z,23.55
2019-05-13T15:29:04.826Z,23.6
2019-05-13T15:30:45.742Z,23.3
2019-05-13T15:32:26.399Z,23.29
2019-05-13T15:34:08.942Z,23.12
2019-05-13T15:35:48.391Z,23.34
2019-05-13T15:37:32.114Z,23.54
2019-05-13T15:39:11.929Z,23.51
2019-05-13T15:40:52.248Z,23.64
2019-05-13T15:42:32.065Z,23.75
2019-05-13T15:44:17.474Z,23.91
2019-05-13T15:45:58.677Z,23.8
2019-05-13T15:47:41.928Z,23.64
2019-05-13T15:49:22.118Z,23.79
2019-05-13T15:51:02.403Z,23.67
2019-05-13T15:52:43.148Z,23.59
2019-05-13T15:54:32.671Z,23.38
2019-05-13T15:56:13.164Z,23.32
2019-05-13T15:57:52.707Z,23.25
2019-05-13T15:59:32.298Z,22.97
2019-05-13T16:01:12.496Z,22.8
2019-05-13T16:02:52.550Z,22.87
2019-05-13T16:04:32.046Z,23.09
2019-05-13T16:06:45.087Z,23.31
2019-05-13T16:08:26.979Z,23.27
2019-05-13T16:10:08.294Z,23.09
2019-05-13T16:11:51.893Z,22.96
2019-05-13T16:13:34.912Z,22.85
2019-05-13T16:15:15.749Z,22.71
2019-05-13T16:16:58.141Z,22.46
2019-05-13T16:18:38.676Z,22.24
2019-05-13T16:20:21.325Z,22.12
2019-05-13T16:22:01.739Z,22.03
2019-05-13T16:23:42.799Z,21.88
2019-05-13T16:25:22.486Z,21.74
2019-05-13T16:27:02.703Z,21.6
2019-05-13T16:29:12.666Z,21.83
2019-05-13T16:30:52.484Z,21.78
2019-05-13T16:32:32.100Z,21.84
2019-05-13T16:34:13.408Z,21.9
2019-05-13T16:35:53.380Z,21.99
2019-05-13T16:37:32.934Z,21.84
2019-05-13T16:39:21.787Z,21.79
2019-05-13T16:41:01.381Z,21.73
2019-05-13T16:42:42.300Z,21.58
2019-05-13T16:44:22.505Z,21.5
2019-05-13T16:46:02.211Z,21.51
2019-05-13T16:48:03.609Z,21.63
2019-05-13T16:49:43.393Z,21.36
2019-05-13T16:51:22.925Z,21.14
2019-05-13T16:53:02.469Z,20.95
2019-05-13T16:54:42.562Z,20.94
2019-05-13T16:56:27.426Z,20.95
2019-05-13T16:58:12.515Z,20.91
2019-05-13T16:59:57.808Z,20.78
2019-05-13T17:01:38.850Z,20.77
2019-05-13T17:03:21.155Z,20.75
2019-05-13T17:05:01.373Z,20.74
2019-05-13T17:06:41.610Z,20.63
2019-05-13T17:08:21.287Z,20.62
2019-05-13T17:10:03.414Z,20.49
2019-05-13T17:11:42.958Z,20.18
2019-05-13T17:13:22.399Z,19.96
2019-05-13T17:15:01.895Z,19.66
2019-05-13T17:16:41.535Z,19.3
2019-05-13T17:18:21.908Z,18.95
2019-05-13T17:20:02.366Z,18.53
2019-05-13T17:21:41.918Z,18.33
2019-05-13T17:23:21.722Z,18.12
2019-05-13T17:25:02.456Z,17.84
2019-05-13T17:26:47.657Z,17.69
2019-05-13T17:28:30.834Z,17.44
2019-05-13T17:30:12.231Z,17.25
2019-05-13T17:31:51.935Z,17.06
2019-05-13T17:33:31.918Z,16.91
2019-05-13T17:35:15.040Z,16.81
2019-05-13T17:36:56.875Z,16.77
2019-05-13T17:38:38.882Z,16.74
2019-05-13T17:40:18.336Z,16.65
2019-05-13T17:42:01.400Z,16.56
2019-05-13T17:43:41.292Z,16.52
2019-05-13T17:45:21.949Z,16.46
2019-05-13T17:47:01.991Z,16.4
2019-05-13T17:48:41.789Z,16.32
2019-05-13T17:50:22.207Z,16.24
2019-05-13T17:52:02.541Z,16.14
2019-05-13T17:53:42.153Z,16.02
2019-05-13T17:55:22.357Z,15.9
2019-05-13T17:57:02.100Z,15.83
2019-05-13T17:58:42.093Z,15.77
2019-05-13T18:00:21.742Z,15.71
2019-05-13T18:02:02.936Z,15.69
2019-05-13T18:03:51.709Z,15.61
2019-05-13T18:05:37.784Z,15.54
2019-05-13T18:07:23.647Z,15.51
2019-05-13T18:09:11.923Z,15.46
2019-05-13T18:11:05.025Z,15.42
2019-05-13T18:12:52.020Z,15.38
2019-05-13T18:14:38.394Z,15.36
2019-05-13T18:16:25.278Z,15.29
2019-05-13T18:18:11.959Z,15.23
2019-05-13T18:19:51.807Z,15.15
2019-05-13T18:21:31.783Z,15.09
2019-05-13T18:23:12.096Z,15
2019-05-13T18:24:52.013Z,14.94
2019-05-13T18:26:31.961Z,14.92
2019-05-13T18:28:26.647Z,14.83
2019-05-13T18:30:11.204Z,14.77
2019-05-13T18:31:52.386Z,14.72
2019-05-13T18:33:32.035Z,14.66
2019-05-13T18:35:12.226Z,14.59
2019-05-13T18:36:51.783Z,14.51
2019-05-13T18:38:34.186Z,14.48
2019-05-13T18:40:13.677Z,14.42
2019-05-13T18:41:53.130Z,14.35
2019-05-13T18:43:32.527Z,14.28
2019-05-13T18:45:12.091Z,14.24
2019-05-13T18:46:52.283Z,14.19
2019-05-13T18:48:33.248Z,14.14
2019-05-13T18:50:12.687Z,14.07
2019-05-13T18:51:52.248Z,14.01
2019-05-13T18:53:32.202Z,13.96
2019-05-13T18:55:12.499Z,13.86
2019-05-13T18:56:52.266Z,13.78
2019-05-13T18:58:31.825Z,13.71
2019-05-13T19:00:11.101Z,13.65
2019-05-13T19:01:52.865Z,13.65
2019-05-13T19:03:32.571Z,13.59
2019-05-13T19:05:12.109Z,13.54
2019-05-13T19:06:51.595Z,13.46
2019-05-13T19:08:32.037Z,13.38
2019-05-13T19:10:12.154Z,13.29
2019-05-13T19:11:51.693Z,13.24
2019-05-13T19:13:32.659Z,13.17
2019-05-13T19:15:12.181Z,13.14
2019-05-13T19:16:51.716Z,13.06
2019-05-13T19:18:31.973Z,12.99
2019-05-13T19:20:11.817Z,12.92
2019-05-13T19:21:51.331Z,12.85
2019-05-13T19:23:31.438Z,12.79
2019-05-13T19:25:11.852Z,12.72
2019-05-13T19:26:52.084Z,12.7
2019-05-13T19:28:32.000Z,12.64
2019-05-13T19:30:12.077Z,12.59
2019-05-13T19:31:51.734Z,12.49
2019-05-13T19:33:31.146Z,12.5
2019-05-13T19:35:11.619Z,12.49
2019-05-13T19:36:51.711Z,12.47
2019-05-13T19:38:31.839Z,12.46
2019-05-13T19:40:12.898Z,12.43
2019-05-13T19:41:52.602Z,12.42
2019-05-13T19:43:32.008Z,12.38
2019-05-13T19:45:11.517Z,12.36
2019-05-13T19:46:52.311Z,12.31
2019-05-13T19:48:32.545Z,12.27
2019-05-13T19:50:11.531Z,12.21
2019-05-13T19:51:52.110Z,12.16
2019-05-13T19:53:32.029Z,12.11
2019-05-13T19:55:12.007Z,12.06
2019-05-13T19:56:52.087Z,11.99
2019-05-13T19:58:32.452Z,11.92
2019-05-13T20:00:13.948Z,11.86
2019-05-13T20:01:55.395Z,11.79
2019-05-13T20:03:36.230Z,11.7
2019-05-13T20:05:20.435Z,11.64
2019-05-13T20:07:02.453Z,11.57
2019-05-13T20:08:41.870Z,11.52
2019-05-13T20:10:21.364Z,11.45
2019-05-13T20:12:01.958Z,11.41
2019-05-13T20:13:41.750Z,11.34
2019-05-13T20:15:22.060Z,11.33
2019-05-13T20:17:01.572Z,11.27
2019-05-13T20:18:41.379Z,11.23
2019-05-13T20:20:21.317Z,11.17
2019-05-13T20:22:02.336Z,11.14
2019-05-13T20:23:42.274Z,11
2019-05-13T20:25:21.872Z,10.82
2019-05-13T20:27:01.741Z,10.62
2019-05-13T20:28:41.947Z,10.48
2019-05-13T20:30:21.973Z,10.3
2019-05-13T20:32:01.534Z,10.16
2019-05-13T20:33:42.903Z,10.01
2019-05-13T20:35:22.478Z,9.92
2019-05-13T20:37:02.224Z,9.84
2019-05-13T20:38:45.007Z,9.84
2019-05-13T20:40:26.444Z,9.75
2019-05-13T20:42:07.862Z,9.68
2019-05-13T20:43:52.172Z,9.62
2019-05-13T20:45:32.183Z,9.53
2019-05-13T20:47:11.544Z,9.5
2019-05-13T20:48:51.902Z,9.45
2019-05-13T20:50:31.743Z,9.41
2019-05-13T20:52:14.500Z,9.4
2019-05-13T20:53:56.992Z,9.39
2019-05-13T20:55:38.598Z,9.38
2019-05-13T20:57:21.531Z,9.36
2019-05-13T20:59:04.039Z,9.33
2019-05-13T21:00:43.452Z,9.37
2019-05-13T21:02:22.927Z,9.37
2019-05-13T21:04:02.243Z,9.37
2019-05-13T21:05:41.856Z,9.32
2019-05-13T21:07:21.684Z,9.29
2019-05-13T21:09:01.549Z,9.22
2019-05-13T21:10:42.114Z,9.18
2019-05-13T21:12:22.093Z,9.16
2019-05-13T21:14:01.709Z,9.11
2019-05-13T21:15:42.395Z,9.08
2019-05-13T21:17:22.371Z,9.06
2019-05-13T21:19:02.025Z,9.01
2019-05-13T21:20:41.740Z,8.95
2019-05-13T21:22:21.669Z,8.91
2019-05-13T21:24:01.626Z,8.79
2019-05-13T21:25:41.774Z,8.76
2019-05-13T21:27:21.483Z,9.98
2019-05-13T21:29:01.540Z,8.82
2019-05-13T21:30:41.982Z,8.74
2019-05-13T21:32:21.698Z,8.68
2019-05-13T21:34:01.441Z,9.88
2019-05-13T21:35:41.847Z,8.72
2019-05-13T21:37:22.148Z,8.6
2019-05-13T21:39:02.058Z,9.78
2019-05-13T21:40:53.426Z,8.62
2019-05-13T21:42:33.081Z,8.49
2019-05-13T21:44:12.635Z,9.69
2019-05-13T21:45:52.466Z,8.53
2019-05-13T21:47:32.322Z,9.66
2019-05-13T21:49:12.136Z,8.42
2019-05-13T21:50:56.390Z,8.21
2019-05-13T21:52:36.079Z,9.37
2019-05-13T21:54:18.358Z,8.17
2019-05-13T21:55:58.108Z,9.29
2019-05-13T21:57:41.435Z,8.09
2019-05-13T21:59:23.194Z,9.23
2019-05-13T22:01:01.918Z,8.03
2019-05-13T22:02:41.492Z,9.11
2019-05-13T22:04:21.536Z,7.92
2019-05-13T22:06:01.904Z,9.05
2019-05-13T22:07:42.224Z,7.85
2019-05-13T22:09:22.211Z,9.03
2019-05-13T22:11:02.011Z,7.86
2019-05-13T22:12:41.566Z,9.02
2019-05-13T22:14:22.354Z,7.88
2019-05-13T22:16:01.912Z,9.06
2019-05-13T22:17:42.182Z,7.93
2019-05-13T22:19:22.355Z,9.1
2019-05-13T22:21:01.964Z,7.98
2019-05-13T22:22:41.678Z,9.16